sensor_id;sensor_type;location;lat;lon;timestamp;P1;P2;P0
62631;PMS5003;48703;51.248;-0.546;2022-11-12T00:01:03;13.89;12.81;
62631;PMS5003;48703;51.248;-0.546;2022-11-12T00:04:05;12.96;12.14;
62631;PMS5003;48703;51.248;-0.546;2022-11-12T00:07:06;12.24;10.61;
62631;PMS5003;48703;51.248;-0.546;2022-11-12T00:10:08;12.56;11.59;
62631;PMS5003;48703;51.248;-0.546;2022-11-12T00:13:09;11.86;10.73;
62631;PMS5003;48703;51.248;-0.546;2022-11-12T00:16:10;13.53;11.64;
62631;PMS5003;48703;51.248;-0.546;2022-11-12T00:19:12;12.27;12.14;
62631;PMS5003;48703;51.248;-0.546;2022-11-12T00:22:13;14.97;13.64;
62631;PMS5003;48703;51.248;-0.546;2022-11-12T00:25:15;14.03;12.68;
62631;PMS5003;48703;51.248;-0.546;2022-11-12T00:28:16;12.31;11.86;
62631;PMS5003;48703;51.248;-0.546;2022-11-12T00:31:18;12.93;11.40;
62631;PMS5003;48703;51.248;-0.546;2022-11-12T00:34:19;13.27;12.23;
62631;PMS5003;48703;51.248;-0.546;2022-11-12T00:37:20;13.24;12.16;
62631;PMS5003;48703;51.248;-0.546;2022-11-12T00:40:22;13.11;11.76;
62631;PMS5003;48703;51.248;-0.546;2022-11-12T00:43:23;14.09;12.68;
62631;PMS5003;48703;51.248;-0.546;2022-11-12T00:46:25;10.59;10.59;
62631;PMS5003;48703;51.248;-0.546;2022-11-12T00:49:26;13.53;12.71;
62631;PMS5003;48703;51.248;-0.546;2022-11-12T00:52:28;10.37;9.80;
62631;PMS5003;48703;51.248;-0.546;2022-11-12T00:55:29;12.01;11.59;
62631;PMS5003;48703;51.248;-0.546;2022-11-12T00:58:32;15.07;13.13;
62631;PMS5003;48703;51.248;-0.546;2022-11-12T01:01:33;11.97;10.51;
62631;PMS5003;48703;51.248;-0.546;2022-11-12T01:04:34;13.03;12.47;
62631;PMS5003;48703;51.248;-0.546;2022-11-12T01:07:36;12.69;11.63;
62631;PMS5003;48703;51.248;-0.546;2022-11-12T01:10:37;12.83;12.17;
62631;PMS5003;48703;51.248;-0.546;2022-11-12T01:13:39;14.73;11.77;
62631;PMS5003;48703;51.248;-0.546;2022-11-12T01:16:40;14.04;10.83;
62631;PMS5003;48703;51.248;-0.546;2022-11-12T01:19:42;13.13;12.03;
62631;PMS5003;48703;51.248;-0.546;2022-11-12T01:22:43;12.91;12.68;
62631;PMS5003;48703;51.248;-0.546;2022-11-12T01:25:44;14.11;11.96;
62631;PMS5003;48703;51.248;-0.546;2022-11-12T01:28:46;15.58;15.33;
62631;PMS5003;48703;51.248;-0.546;2022-11-12T01:31:47;15.44;13.77;
62631;PMS5003;48703;51.248;-0.546;2022-11-12T01:34:49;15.47;14.94;
62631;PMS5003;48703;51.248;-0.546;2022-11-12T01:37:50;16.04;14.01;
62631;PMS5003;48703;51.248;-0.546;2022-11-12T01:40:51;17.87;15.93;
62631;PMS5003;48703;51.248;-0.546;2022-11-12T01:44:10;15.43;13.39;
62631;PMS5003;48703;51.248;-0.546;2022-11-12T01:46:57;15.74;12.86;
62631;PMS5003;48703;51.248;-0.546;2022-11-12T01:49:57;15.59;13.83;
62631;PMS5003;48703;51.248;-0.546;2022-11-12T01:52:58;17.90;14.83;
62631;PMS5003;48703;51.248;-0.546;2022-11-12T01:55:59;16.19;15.16;
62631;PMS5003;48703;51.248;-0.546;2022-11-12T01:59:01;16.87;15.51;
62631;PMS5003;48703;51.248;-0.546;2022-11-12T02:02:02;16.63;15.77;
62631;PMS5003;48703;51.248;-0.546;2022-11-12T02:05:05;17.93;15.84;
62631;PMS5003;48703;51.248;-0.546;2022-11-12T02:08:05;18.04;15.44;
62631;PMS5003;48703;51.248;-0.546;2022-11-12T02:11:11;17.54;15.97;
62631;PMS5003;48703;51.248;-0.546;2022-11-12T02:14:08;17.00;14.20;
62631;PMS5003;48703;51.248;-0.546;2022-11-12T02:17:09;17.56;13.94;
62631;PMS5003;48703;51.248;-0.546;2022-11-12T02:20:12;15.86;13.63;
62631;PMS5003;48703;51.248;-0.546;2022-11-12T02:23:13;14.57;13.07;
62631;PMS5003;48703;51.248;-0.546;2022-11-12T02:26:15;16.00;13.49;
62631;PMS5003;48703;51.248;-0.546;2022-11-12T02:29:16;16.26;15.25;
62631;PMS5003;48703;51.248;-0.546;2022-11-12T02:32:17;18.57;13.24;
62631;PMS5003;48703;51.248;-0.546;2022-11-12T02:35:19;16.54;15.19;
62631;PMS5003;48703;51.248;-0.546;2022-11-12T02:38:21;15.44;13.67;
62631;PMS5003;48703;51.248;-0.546;2022-11-12T02:41:22;15.23;14.71;
62631;PMS5003;48703;51.248;-0.546;2022-11-12T02:44:24;16.16;14.37;
62631;PMS5003;48703;51.248;-0.546;2022-11-12T02:47:26;17.11;14.76;
62631;PMS5003;48703;51.248;-0.546;2022-11-12T02:50:27;14.84;14.14;
62631;PMS5003;48703;51.248;-0.546;2022-11-12T02:53:29;18.16;13.90;
62631;PMS5003;48703;51.248;-0.546;2022-11-12T02:56:31;13.16;12.74;
62631;PMS5003;48703;51.248;-0.546;2022-11-12T02:59:32;13.77;13.26;
62631;PMS5003;48703;51.248;-0.546;2022-11-12T03:02:34;13.01;13.01;
62631;PMS5003;48703;51.248;-0.546;2022-11-12T03:05:35;13.57;10.86;
62631;PMS5003;48703;51.248;-0.546;2022-11-12T03:08:36;12.91;11.63;
62631;PMS5003;48703;51.248;-0.546;2022-11-12T03:11:38;13.72;12.48;
62631;PMS5003;48703;51.248;-0.546;2022-11-12T03:14:39;12.46;11.94;
62631;PMS5003;48703;51.248;-0.546;2022-11-12T03:17:40;14.25;12.93;
62631;PMS5003;48703;51.248;-0.546;2022-11-12T03:20:42;12.84;12.16;
62631;PMS5003;48703;51.248;-0.546;2022-11-12T03:23:43;13.59;12.47;
62631;PMS5003;48703;51.248;-0.546;2022-11-12T03:26:45;12.81;11.91;
62631;PMS5003;48703;51.248;-0.546;2022-11-12T03:29:47;13.49;13.49;
62631;PMS5003;48703;51.248;-0.546;2022-11-12T03:32:48;12.59;11.86;
62631;PMS5003;48703;51.248;-0.546;2022-11-12T03:35:50;14.41;13.41;
62631;PMS5003;48703;51.248;-0.546;2022-11-12T03:38:52;14.39;11.83;
62631;PMS5003;48703;51.248;-0.546;2022-11-12T03:41:53;13.06;11.73;
62631;PMS5003;48703;51.248;-0.546;2022-11-12T03:44:55;13.31;12.50;
62631;PMS5003;48703;51.248;-0.546;2022-11-12T03:47:56;12.30;11.83;
62631;PMS5003;48703;51.248;-0.546;2022-11-12T03:50:58;14.37;13.06;
62631;PMS5003;48703;51.248;-0.546;2022-11-12T03:53:59;10.74;10.74;
62631;PMS5003;48703;51.248;-0.546;2022-11-12T03:57:01;12.94;12.40;
62631;PMS5003;48703;51.248;-0.546;2022-11-12T04:00:03;12.01;11.63;
62631;PMS5003;48703;51.248;-0.546;2022-11-12T04:03:04;13.10;11.71;
62631;PMS5003;48703;51.248;-0.546;2022-11-12T04:06:07;13.50;12.69;
62631;PMS5003;48703;51.248;-0.546;2022-11-12T04:09:07;13.51;13.26;
62631;PMS5003;48703;51.248;-0.546;2022-11-12T04:12:09;12.91;11.75;
62631;PMS5003;48703;51.248;-0.546;2022-11-12T04:15:10;12.46;11.61;
62631;PMS5003;48703;51.248;-0.546;2022-11-12T04:18:12;13.45;12.99;
62631;PMS5003;48703;51.248;-0.546;2022-11-12T04:21:13;11.97;11.83;
62631;PMS5003;48703;51.248;-0.546;2022-11-12T04:24:14;15.30;12.67;
62631;PMS5003;48703;51.248;-0.546;2022-11-12T04:27:17;12.07;10.13;
62631;PMS5003;48703;51.248;-0.546;2022-11-12T04:30:17;12.23;11.34;
62631;PMS5003;48703;51.248;-0.546;2022-11-12T04:33:19;12.93;11.71;
62631;PMS5003;48703;51.248;-0.546;2022-11-12T04:36:20;14.47;12.63;
62631;PMS5003;48703;51.248;-0.546;2022-11-12T04:39:22;12.27;11.34;
62631;PMS5003;48703;51.248;-0.546;2022-11-12T04:42:23;15.06;13.86;
62631;PMS5003;48703;51.248;-0.546;2022-11-12T04:45:25;13.34;12.37;
62631;PMS5003;48703;51.248;-0.546;2022-11-12T04:48:27;12.81;12.57;
62631;PMS5003;48703;51.248;-0.546;2022-11-12T04:51:28;14.44;12.36;
62631;PMS5003;48703;51.248;-0.546;2022-11-12T04:54:30;12.20;11.16;
62631;PMS5003;48703;51.248;-0.546;2022-11-12T04:57:32;13.91;12.40;
62631;PMS5003;48703;51.248;-0.546;2022-11-12T05:00:33;12.07;11.66;
62631;PMS5003;48703;51.248;-0.546;2022-11-12T05:03:35;14.57;13.91;
62631;PMS5003;48703;51.248;-0.546;2022-11-12T05:06:36;13.24;13.24;
62631;PMS5003;48703;51.248;-0.546;2022-11-12T05:09:38;12.86;12.01;
62631;PMS5003;48703;51.248;-0.546;2022-11-12T05:12:40;14.29;12.64;
62631;PMS5003;48703;51.248;-0.546;2022-11-12T05:15:42;14.10;13.14;
62631;PMS5003;48703;51.248;-0.546;2022-11-12T05:18:42;14.26;13.13;
62631;PMS5003;48703;51.248;-0.546;2022-11-12T05:21:44;15.59;14.40;
62631;PMS5003;48703;51.248;-0.546;2022-11-12T05:24:45;13.54;13.36;
62631;PMS5003;48703;51.248;-0.546;2022-11-12T05:27:46;14.80;14.24;
62631;PMS5003;48703;51.248;-0.546;2022-11-12T05:30:48;14.74;14.39;
62631;PMS5003;48703;51.248;-0.546;2022-11-12T05:33:49;13.84;13.21;
62631;PMS5003;48703;51.248;-0.546;2022-11-12T05:36:50;17.38;16.71;
62631;PMS5003;48703;51.248;-0.546;2022-11-12T05:39:51;18.19;15.33;
62631;PMS5003;48703;51.248;-0.546;2022-11-12T05:42:53;15.50;15.23;
62631;PMS5003;48703;51.248;-0.546;2022-11-12T05:45:54;15.47;14.99;
62631;PMS5003;48703;51.248;-0.546;2022-11-12T05:48:55;16.91;15.24;
62631;PMS5003;48703;51.248;-0.546;2022-11-12T05:51:57;16.20;14.73;
62631;PMS5003;48703;51.248;-0.546;2022-11-12T05:54:58;21.14;16.36;
62631;PMS5003;48703;51.248;-0.546;2022-11-12T05:58:02;18.41;17.90;
62631;PMS5003;48703;51.248;-0.546;2022-11-12T06:01:00;17.19;16.36;
62631;PMS5003;48703;51.248;-0.546;2022-11-12T06:04:02;19.20;16.21;
62631;PMS5003;48703;51.248;-0.546;2022-11-12T06:07:03;18.24;15.94;
62631;PMS5003;48703;51.248;-0.546;2022-11-12T06:10:05;16.33;15.13;
62631;PMS5003;48703;51.248;-0.546;2022-11-12T06:13:06;17.88;17.38;
62631;PMS5003;48703;51.248;-0.546;2022-11-12T06:16:07;18.25;15.87;
62631;PMS5003;48703;51.248;-0.546;2022-11-12T06:19:08;17.67;16.78;
62631;PMS5003;48703;51.248;-0.546;2022-11-12T06:22:09;15.04;14.19;
62631;PMS5003;48703;51.248;-0.546;2022-11-12T06:25:11;16.01;15.14;
62631;PMS5003;48703;51.248;-0.546;2022-11-12T06:28:12;15.59;14.21;
62631;PMS5003;48703;51.248;-0.546;2022-11-12T06:31:13;16.61;14.64;
62631;PMS5003;48703;51.248;-0.546;2022-11-12T06:34:14;17.71;15.52;
62631;PMS5003;48703;51.248;-0.546;2022-11-12T06:37:15;14.86;13.53;
62631;PMS5003;48703;51.248;-0.546;2022-11-12T06:40:16;16.77;15.86;
62631;PMS5003;48703;51.248;-0.546;2022-11-12T06:43:17;16.33;15.49;
62631;PMS5003;48703;51.248;-0.546;2022-11-12T06:46:18;16.71;14.26;
62631;PMS5003;48703;51.248;-0.546;2022-11-12T06:49:19;16.45;14.72;
62631;PMS5003;48703;51.248;-0.546;2022-11-12T06:52:21;16.43;15.07;
62631;PMS5003;48703;51.248;-0.546;2022-11-12T06:55:22;13.93;13.30;
62631;PMS5003;48703;51.248;-0.546;2022-11-12T06:58:24;16.43;14.40;
62631;PMS5003;48703;51.248;-0.546;2022-11-12T07:01:25;18.30;16.81;
62631;PMS5003;48703;51.248;-0.546;2022-11-12T07:04:27;15.96;14.26;
62631;PMS5003;48703;51.248;-0.546;2022-11-12T07:07:29;16.26;15.20;
62631;PMS5003;48703;51.248;-0.546;2022-11-12T07:10:30;16.31;15.31;
62631;PMS5003;48703;51.248;-0.546;2022-11-12T07:13:32;18.45;17.30;
62631;PMS5003;48703;51.248;-0.546;2022-11-12T07:16:33;16.61;15.88;
62631;PMS5003;48703;51.248;-0.546;2022-11-12T07:19:34;22.71;18.59;
62631;PMS5003;48703;51.248;-0.546;2022-11-12T07:22:35;17.68;16.57;
62631;PMS5003;48703;51.248;-0.546;2022-11-12T07:25:36;16.43;15.54;
62631;PMS5003;48703;51.248;-0.546;2022-11-12T07:28:38;16.74;15.70;
62631;PMS5003;48703;51.248;-0.546;2022-11-12T07:31:39;17.87;15.60;
62631;PMS5003;48703;51.248;-0.546;2022-11-12T07:34:40;18.78;17.03;
62631;PMS5003;48703;51.248;-0.546;2022-11-12T07:37:41;18.93;17.17;
62631;PMS5003;48703;51.248;-0.546;2022-11-12T07:40:43;19.00;15.99;
62631;PMS5003;48703;51.248;-0.546;2022-11-12T07:43:44;17.84;16.09;
62631;PMS5003;48703;51.248;-0.546;2022-11-12T07:46:45;16.94;16.13;
62631;PMS5003;48703;51.248;-0.546;2022-11-12T07:49:47;16.77;16.64;
62631;PMS5003;48703;51.248;-0.546;2022-11-12T07:52:48;19.01;17.51;
62631;PMS5003;48703;51.248;-0.546;2022-11-12T07:55:53;19.96;17.19;
62631;PMS5003;48703;51.248;-0.546;2022-11-12T07:58:51;20.24;17.66;
62631;PMS5003;48703;51.248;-0.546;2022-11-12T08:01:53;19.47;17.79;
62631;PMS5003;48703;51.248;-0.546;2022-11-12T08:04:55;21.44;19.97;
62631;PMS5003;48703;51.248;-0.546;2022-11-12T08:07:55;22.61;19.81;
62631;PMS5003;48703;51.248;-0.546;2022-11-12T08:10:57;21.96;20.59;
62631;PMS5003;48703;51.248;-0.546;2022-11-12T08:13:58;20.65;19.90;
62631;PMS5003;48703;51.248;-0.546;2022-11-12T08:17:00;22.75;20.99;
62631;PMS5003;48703;51.248;-0.546;2022-11-12T08:20:01;23.91;20.59;
62631;PMS5003;48703;51.248;-0.546;2022-11-12T08:23:03;22.51;19.44;
62631;PMS5003;48703;51.248;-0.546;2022-11-12T08:26:05;22.51;20.71;
62631;PMS5003;48703;51.248;-0.546;2022-11-12T08:29:07;22.29;20.17;
62631;PMS5003;48703;51.248;-0.546;2022-11-12T08:32:07;21.13;18.86;
62631;PMS5003;48703;51.248;-0.546;2022-11-12T08:35:09;22.27;19.87;
62631;PMS5003;48703;51.248;-0.546;2022-11-12T08:38:10;20.77;19.59;
62631;PMS5003;48703;51.248;-0.546;2022-11-12T08:41:12;19.42;18.42;
62631;PMS5003;48703;51.248;-0.546;2022-11-12T08:44:13;23.28;20.65;
62631;PMS5003;48703;51.248;-0.546;2022-11-12T08:47:14;19.80;18.96;
62631;PMS5003;48703;51.248;-0.546;2022-11-12T08:50:15;21.21;19.91;
62631;PMS5003;48703;51.248;-0.546;2022-11-12T08:53:17;21.46;20.01;
62631;PMS5003;48703;51.248;-0.546;2022-11-12T08:56:18;25.61;22.07;
62631;PMS5003;48703;51.248;-0.546;2022-11-12T08:59:19;23.35;20.45;
62631;PMS5003;48703;51.248;-0.546;2022-11-12T09:02:20;24.00;22.04;
62631;PMS5003;48703;51.248;-0.546;2022-11-12T09:05:21;23.11;22.30;
62631;PMS5003;48703;51.248;-0.546;2022-11-12T09:08:23;24.71;22.77;
62631;PMS5003;48703;51.248;-0.546;2022-11-12T09:11:24;24.86;23.25;
62631;PMS5003;48703;51.248;-0.546;2022-11-12T09:14:25;24.32;22.32;
62631;PMS5003;48703;51.248;-0.546;2022-11-12T09:17:27;24.66;23.87;
62631;PMS5003;48703;51.248;-0.546;2022-11-12T09:20:28;26.13;23.33;
62631;PMS5003;48703;51.248;-0.546;2022-11-12T09:23:29;25.29;22.94;
62631;PMS5003;48703;51.248;-0.546;2022-11-12T09:26:30;24.84;21.86;
62631;PMS5003;48703;51.248;-0.546;2022-11-12T09:29:31;26.10;24.51;
62631;PMS5003;48703;51.248;-0.546;2022-11-12T09:32:32;23.63;20.16;
62631;PMS5003;48703;51.248;-0.546;2022-11-12T09:35:33;25.21;22.54;
62631;PMS5003;48703;51.248;-0.546;2022-11-12T09:38:35;23.49;21.87;
62631;PMS5003;48703;51.248;-0.546;2022-11-12T09:41:37;26.29;23.42;
62631;PMS5003;48703;51.248;-0.546;2022-11-12T09:44:38;21.33;20.90;
62631;PMS5003;48703;51.248;-0.546;2022-11-12T09:47:39;27.29;23.72;
62631;PMS5003;48703;51.248;-0.546;2022-11-12T09:50:41;24.25;22.62;
62631;PMS5003;48703;51.248;-0.546;2022-11-12T09:53:42;24.81;21.65;
62631;PMS5003;48703;51.248;-0.546;2022-11-12T09:56:42;24.33;22.39;
62631;PMS5003;48703;51.248;-0.546;2022-11-12T09:59:43;27.16;24.71;
62631;PMS5003;48703;51.248;-0.546;2022-11-12T10:02:46;27.99;24.51;
62631;PMS5003;48703;51.248;-0.546;2022-11-12T10:05:47;25.44;23.23;
62631;PMS5003;48703;51.248;-0.546;2022-11-12T10:08:49;28.42;25.16;
62631;PMS5003;48703;51.248;-0.546;2022-11-12T10:11:54;25.43;23.97;
62631;PMS5003;48703;51.248;-0.546;2022-11-12T10:14:57;28.46;23.93;
62631;PMS5003;48703;51.248;-0.546;2022-11-12T10:17:53;27.61;24.64;
62631;PMS5003;48703;51.248;-0.546;2022-11-12T10:20:55;25.01;23.04;
62631;PMS5003;48703;51.248;-0.546;2022-11-12T10:23:56;22.96;22.00;
62631;PMS5003;48703;51.248;-0.546;2022-11-12T10:26:58;24.67;22.99;
62631;PMS5003;48703;51.248;-0.546;2022-11-12T10:30:00;23.93;22.06;
62631;PMS5003;48703;51.248;-0.546;2022-11-12T10:33:01;25.97;23.26;
62631;PMS5003;48703;51.248;-0.546;2022-11-12T10:36:11;25.30;24.84;
62631;PMS5003;48703;51.248;-0.546;2022-11-12T10:39:03;26.00;24.10;
62631;PMS5003;48703;51.248;-0.546;2022-11-12T10:42:06;23.43;21.99;
62631;PMS5003;48703;51.248;-0.546;2022-11-12T10:45:18;22.54;20.66;
62631;PMS5003;48703;51.248;-0.546;2022-11-12T10:48:18;23.86;20.29;
62631;PMS5003;48703;51.248;-0.546;2022-11-12T10:51:17;23.60;20.86;
62631;PMS5003;48703;51.248;-0.546;2022-11-12T10:54:20;23.80;21.73;
62631;PMS5003;48703;51.248;-0.546;2022-11-12T10:57:19;23.41;21.50;
62631;PMS5003;48703;51.248;-0.546;2022-11-12T11:00:15;22.19;21.47;
62631;PMS5003;48703;51.248;-0.546;2022-11-12T11:03:18;21.77;21.35;
62631;PMS5003;48703;51.248;-0.546;2022-11-12T11:06:20;22.62;20.19;
62631;PMS5003;48703;51.248;-0.546;2022-11-12T11:09:16;24.14;21.91;
62631;PMS5003;48703;51.248;-0.546;2022-11-12T11:12:22;22.39;19.55;
62631;PMS5003;48703;51.248;-0.546;2022-11-12T11:15:20;23.10;20.84;
62631;PMS5003;48703;51.248;-0.546;2022-11-12T11:18:20;20.87;19.74;
62631;PMS5003;48703;51.248;-0.546;2022-11-12T11:21:33;24.28;22.32;
62631;PMS5003;48703;51.248;-0.546;2022-11-12T11:24:32;20.90;19.57;
62631;PMS5003;48703;51.248;-0.546;2022-11-12T11:27:31;22.19;20.99;
62631;PMS5003;48703;51.248;-0.546;2022-11-12T11:30:26;20.53;18.81;
62631;PMS5003;48703;51.248;-0.546;2022-11-12T11:33:30;20.87;19.11;
62631;PMS5003;48703;51.248;-0.546;2022-11-12T11:36:30;22.47;21.49;
62631;PMS5003;48703;51.248;-0.546;2022-11-12T11:39:33;18.06;17.01;
62631;PMS5003;48703;51.248;-0.546;2022-11-12T11:42:39;20.59;18.29;
62631;PMS5003;48703;51.248;-0.546;2022-11-12T11:45:36;20.24;18.06;
62631;PMS5003;48703;51.248;-0.546;2022-11-12T11:48:38;18.03;17.53;
62631;PMS5003;48703;51.248;-0.546;2022-11-12T11:51:37;20.21;18.87;
62631;PMS5003;48703;51.248;-0.546;2022-11-12T11:54:42;17.97;17.53;
62631;PMS5003;48703;51.248;-0.546;2022-11-12T11:57:40;18.51;17.81;
62631;PMS5003;48703;51.248;-0.546;2022-11-12T12:00:43;19.51;16.39;
62631;PMS5003;48703;51.248;-0.546;2022-11-12T12:03:44;18.71;16.71;
62631;PMS5003;48703;51.248;-0.546;2022-11-12T12:06:43;18.68;17.49;
62631;PMS5003;48703;51.248;-0.546;2022-11-12T12:09:44;19.45;18.32;
62631;PMS5003;48703;51.248;-0.546;2022-11-12T12:12:47;19.69;18.99;
62631;PMS5003;48703;51.248;-0.546;2022-11-12T12:15:49;19.45;18.67;
62631;PMS5003;48703;51.248;-0.546;2022-11-12T12:18:49;17.93;17.24;
62631;PMS5003;48703;51.248;-0.546;2022-11-12T12:21:49;19.23;18.73;
62631;PMS5003;48703;51.248;-0.546;2022-11-12T12:24:50;20.90;18.79;
62631;PMS5003;48703;51.248;-0.546;2022-11-12T12:27:52;20.64;18.04;
62631;PMS5003;48703;51.248;-0.546;2022-11-12T12:30:53;19.64;18.74;
62631;PMS5003;48703;51.248;-0.546;2022-11-12T12:33:54;19.30;17.28;
62631;PMS5003;48703;51.248;-0.546;2022-11-12T12:36:56;18.93;17.13;
62631;PMS5003;48703;51.248;-0.546;2022-11-12T12:39:58;17.41;16.56;
62631;PMS5003;48703;51.248;-0.546;2022-11-12T12:42:59;19.23;17.39;
62631;PMS5003;48703;51.248;-0.546;2022-11-12T12:45:59;17.31;16.51;
62631;PMS5003;48703;51.248;-0.546;2022-11-12T12:49:01;18.91;17.11;
62631;PMS5003;48703;51.248;-0.546;2022-11-12T12:52:02;14.00;14.00;
62631;PMS5003;48703;51.248;-0.546;2022-11-12T12:55:04;16.10;15.23;
62631;PMS5003;48703;51.248;-0.546;2022-11-12T12:58:14;15.64;14.13;
62631;PMS5003;48703;51.248;-0.546;2022-11-12T13:01:09;16.99;16.53;
62631;PMS5003;48703;51.248;-0.546;2022-11-12T13:04:08;16.07;14.00;
62631;PMS5003;48703;51.248;-0.546;2022-11-12T13:07:09;16.74;15.07;
62631;PMS5003;48703;51.248;-0.546;2022-11-12T13:10:45;16.59;15.11;
62631;PMS5003;48703;51.248;-0.546;2022-11-12T13:13:23;15.99;15.26;
62631;PMS5003;48703;51.248;-0.546;2022-11-12T13:16:31;14.23;13.80;
62631;PMS5003;48703;51.248;-0.546;2022-11-12T13:19:22;15.19;14.57;
62631;PMS5003;48703;51.248;-0.546;2022-11-12T13:22:32;13.66;12.84;
62631;PMS5003;48703;51.248;-0.546;2022-11-12T13:25:26;13.64;13.64;
62631;PMS5003;48703;51.248;-0.546;2022-11-12T13:28:19;14.23;13.36;
62631;PMS5003;48703;51.248;-0.546;2022-11-12T13:31:23;14.69;13.57;
62631;PMS5003;48703;51.248;-0.546;2022-11-12T13:34:24;14.79;14.50;
62631;PMS5003;48703;51.248;-0.546;2022-11-12T13:37:23;15.77;14.67;
62631;PMS5003;48703;51.248;-0.546;2022-11-12T13:40:32;11.90;11.56;
62631;PMS5003;48703;51.248;-0.546;2022-11-12T13:43:30;12.67;12.13;
62631;PMS5003;48703;51.248;-0.546;2022-11-12T13:46:28;12.45;12.03;
62631;PMS5003;48703;51.248;-0.546;2022-11-12T13:49:28;12.17;11.61;
62631;PMS5003;48703;51.248;-0.546;2022-11-12T13:52:30;13.80;12.74;
62631;PMS5003;48703;51.248;-0.546;2022-11-12T13:55:31;13.86;11.60;
62631;PMS5003;48703;51.248;-0.546;2022-11-12T13:58:34;13.30;12.69;
62631;PMS5003;48703;51.248;-0.546;2022-11-12T14:01:34;13.14;12.23;
62631;PMS5003;48703;51.248;-0.546;2022-11-12T14:04:36;11.47;11.09;
62631;PMS5003;48703;51.248;-0.546;2022-11-12T14:07:38;12.80;12.80;
62631;PMS5003;48703;51.248;-0.546;2022-11-12T14:10:40;12.04;11.79;
62631;PMS5003;48703;51.248;-0.546;2022-11-12T14:13:43;11.29;11.29;
62631;PMS5003;48703;51.248;-0.546;2022-11-12T14:16:44;12.51;11.63;
62631;PMS5003;48703;51.248;-0.546;2022-11-12T14:20:47;12.77;12.26;
62631;PMS5003;48703;51.248;-0.546;2022-11-12T14:22:44;11.56;10.71;
62631;PMS5003;48703;51.248;-0.546;2022-11-12T14:25:46;12.59;10.59;
62631;PMS5003;48703;51.248;-0.546;2022-11-12T14:28:50;11.24;9.49;
62631;PMS5003;48703;51.248;-0.546;2022-11-12T14:31:51;13.20;11.61;
62631;PMS5003;48703;51.248;-0.546;2022-11-12T14:34:49;13.01;11.91;
62631;PMS5003;48703;51.248;-0.546;2022-11-12T14:37:52;11.76;10.91;
62631;PMS5003;48703;51.248;-0.546;2022-11-12T14:40:52;12.01;11.16;
62631;PMS5003;48703;51.248;-0.546;2022-11-12T14:43:54;11.50;10.94;
62631;PMS5003;48703;51.248;-0.546;2022-11-12T14:46:55;11.43;10.30;
62631;PMS5003;48703;51.248;-0.546;2022-11-12T14:49:56;12.40;11.97;
62631;PMS5003;48703;51.248;-0.546;2022-11-12T14:52:59;11.26;11.04;
62631;PMS5003;48703;51.248;-0.546;2022-11-12T14:55:59;12.90;12.65;
62631;PMS5003;48703;51.248;-0.546;2022-11-12T14:59:00;12.70;11.29;
62631;PMS5003;48703;51.248;-0.546;2022-11-12T15:02:04;11.19;9.87;
62631;PMS5003;48703;51.248;-0.546;2022-11-12T15:05:10;12.59;12.24;
62631;PMS5003;48703;51.248;-0.546;2022-11-12T15:08:07;10.31;10.31;
62631;PMS5003;48703;51.248;-0.546;2022-11-12T15:11:14;10.25;9.88;
62631;PMS5003;48703;51.248;-0.546;2022-11-12T15:14:08;12.01;11.57;
62631;PMS5003;48703;51.248;-0.546;2022-11-12T15:17:17;14.23;11.66;
62631;PMS5003;48703;51.248;-0.546;2022-11-12T15:20:11;12.34;12.07;
62631;PMS5003;48703;51.248;-0.546;2022-11-12T15:23:14;12.17;11.06;
62631;PMS5003;48703;51.248;-0.546;2022-11-12T15:26:12;11.01;11.01;
62631;PMS5003;48703;51.248;-0.546;2022-11-12T15:29:17;11.93;11.93;
62631;PMS5003;48703;51.248;-0.546;2022-11-12T15:32:31;12.43;11.59;
62631;PMS5003;48703;51.248;-0.546;2022-11-12T15:35:19;12.20;11.16;
62631;PMS5003;48703;51.248;-0.546;2022-11-12T15:38:19;13.09;12.06;
62631;PMS5003;48703;51.248;-0.546;2022-11-12T15:41:20;12.73;11.77;
62631;PMS5003;48703;51.248;-0.546;2022-11-12T15:44:21;12.29;11.26;
62631;PMS5003;48703;51.248;-0.546;2022-11-12T15:47:22;11.14;10.37;
62631;PMS5003;48703;51.248;-0.546;2022-11-12T15:50:24;12.80;11.87;
62631;PMS5003;48703;51.248;-0.546;2022-11-12T15:53:26;11.96;11.01;
62631;PMS5003;48703;51.248;-0.546;2022-11-12T15:56:27;11.36;10.63;
62631;PMS5003;48703;51.248;-0.546;2022-11-12T15:59:28;14.33;12.93;
62631;PMS5003;48703;51.248;-0.546;2022-11-12T16:02:30;12.46;11.89;
62631;PMS5003;48703;51.248;-0.546;2022-11-12T16:05:31;12.83;12.06;
62631;PMS5003;48703;51.248;-0.546;2022-11-12T16:08:33;13.67;13.11;
62631;PMS5003;48703;51.248;-0.546;2022-11-12T16:11:34;13.03;12.60;
62631;PMS5003;48703;51.248;-0.546;2022-11-12T16:14:35;14.23;13.44;
62631;PMS5003;48703;51.248;-0.546;2022-11-12T16:17:37;15.81;14.07;
62631;PMS5003;48703;51.248;-0.546;2022-11-12T16:20:39;14.01;12.36;
62631;PMS5003;48703;51.248;-0.546;2022-11-12T16:23:40;12.37;12.37;
62631;PMS5003;48703;51.248;-0.546;2022-11-12T16:26:42;14.29;12.01;
62631;PMS5003;48703;51.248;-0.546;2022-11-12T16:29:43;14.71;13.17;
62631;PMS5003;48703;51.248;-0.546;2022-11-12T16:32:46;14.40;13.59;
62631;PMS5003;48703;51.248;-0.546;2022-11-12T16:35:46;14.34;13.36;
62631;PMS5003;48703;51.248;-0.546;2022-11-12T16:38:48;13.93;13.00;
62631;PMS5003;48703;51.248;-0.546;2022-11-12T16:41:49;15.46;15.03;
62631;PMS5003;48703;51.248;-0.546;2022-11-12T16:44:51;13.14;13.14;
62631;PMS5003;48703;51.248;-0.546;2022-11-12T16:47:52;12.37;11.99;
62631;PMS5003;48703;51.248;-0.546;2022-11-12T16:50:53;13.06;11.80;
62631;PMS5003;48703;51.248;-0.546;2022-11-12T16:53:54;13.60;12.91;
62631;PMS5003;48703;51.248;-0.546;2022-11-12T16:56:56;13.59;13.40;
62631;PMS5003;48703;51.248;-0.546;2022-11-12T16:59:57;13.13;12.87;
62631;PMS5003;48703;51.248;-0.546;2022-11-12T17:02:59;14.90;14.54;
62631;PMS5003;48703;51.248;-0.546;2022-11-12T17:06:01;16.07;15.51;
62631;PMS5003;48703;51.248;-0.546;2022-11-12T17:09:03;14.24;13.93;
62631;PMS5003;48703;51.248;-0.546;2022-11-12T17:12:04;15.29;15.29;
62631;PMS5003;48703;51.248;-0.546;2022-11-12T17:15:06;14.89;13.69;
62631;PMS5003;48703;51.248;-0.546;2022-11-12T17:18:06;14.90;13.26;
62631;PMS5003;48703;51.248;-0.546;2022-11-12T17:21:09;14.84;14.27;
62631;PMS5003;48703;51.248;-0.546;2022-11-12T17:24:09;15.04;13.66;
62631;PMS5003;48703;51.248;-0.546;2022-11-12T17:27:11;14.84;13.91;
62631;PMS5003;48703;51.248;-0.546;2022-11-12T17:30:12;15.51;15.30;
62631;PMS5003;48703;51.248;-0.546;2022-11-12T17:33:13;15.69;14.94;
62631;PMS5003;48703;51.248;-0.546;2022-11-12T17:36:16;15.47;15.47;
62631;PMS5003;48703;51.248;-0.546;2022-11-12T17:39:16;14.79;14.39;
62631;PMS5003;48703;51.248;-0.546;2022-11-12T17:42:17;14.00;13.51;
62631;PMS5003;48703;51.248;-0.546;2022-11-12T17:45:19;17.09;15.41;
62631;PMS5003;48703;51.248;-0.546;2022-11-12T17:48:21;15.83;14.87;
62631;PMS5003;48703;51.248;-0.546;2022-11-12T17:51:22;18.04;16.20;
62631;PMS5003;48703;51.248;-0.546;2022-11-12T17:54:23;16.70;15.49;
62631;PMS5003;48703;51.248;-0.546;2022-11-12T17:57:25;16.67;15.39;